createdAt,value
2018-10-12T00:02:16.219Z,19.77
2018-10-12T00:04:46.187Z,19.76
2018-10-12T00:07:15.696Z,19.77
2018-10-12T00:09:45.218Z,19.73
2018-10-12T00:12:14.685Z,19.72
2018-10-12T00:14:44.180Z,19.71
2018-10-12T00:17:13.655Z,19.71
2018-10-12T00:19:43.157Z,19.69
2018-10-12T00:22:13.022Z,19.68
2018-10-12T00:24:42.526Z,19.69
2018-10-12T00:27:11.991Z,19.66
2018-10-12T00:29:42.198Z,19.64
2018-10-12T00:32:11.713Z,19.62
2018-10-12T00:34:41.187Z,19.58
2018-10-12T00:37:11.067Z,19.59
2018-10-12T00:39:40.609Z,19.56
2018-10-12T00:42:10.093Z,19.57
2018-10-12T00:44:39.619Z,19.56
2018-10-12T00:47:09.175Z,19.55
2018-10-12T00:49:38.690Z,19.58
2018-10-12T00:52:08.760Z,19.55
2018-10-12T00:54:38.260Z,19.55
2018-10-12T00:57:07.876Z,19.56
2018-10-12T00:59:37.418Z,19.55
2018-10-12T01:02:06.904Z,19.52
2018-10-12T01:04:36.733Z,19.55
2018-10-12T01:07:06.860Z,19.51
2018-10-12T01:09:36.328Z,19.54
2018-10-12T01:12:31.183Z,19.53
2018-10-12T01:15:01.571Z,19.49
2018-10-12T01:17:31.607Z,19.50
2018-10-12T01:20:01.717Z,19.50
2018-10-12T01:22:31.468Z,19.50
2018-10-12T01:25:02.560Z,19.53
2018-10-12T01:27:32.468Z,19.52
2018-10-12T01:30:02.473Z,19.53
2018-10-12T01:33:07.738Z,19.51
2018-10-12T01:35:37.722Z,19.44
2018-10-12T01:38:07.416Z,19.47
2018-10-12T01:40:36.909Z,19.46
2018-10-12T01:43:07.056Z,19.47
2018-10-12T01:45:37.247Z,19.51
2018-10-12T01:48:07.680Z,19.51
2018-10-12T01:50:37.239Z,19.52
2018-10-12T01:53:07.142Z,19.49
2018-10-12T01:55:37.036Z,19.50
2018-10-12T01:58:06.939Z,19.48
2018-10-12T02:00:36.437Z,19.46
2018-10-12T02:03:06.359Z,19.44
2018-10-12T02:05:35.856Z,19.48
2018-10-12T02:08:05.381Z,19.46
2018-10-12T02:10:35.513Z,19.45
2018-10-12T02:13:06.568Z,19.44
2018-10-12T02:15:36.005Z,19.47
2018-10-12T02:18:06.356Z,19.44
2018-10-12T02:20:36.171Z,19.42
2018-10-12T02:23:06.468Z,19.44
2018-10-12T02:25:35.968Z,19.43
2018-10-12T02:28:06.300Z,19.44
2018-10-12T02:30:35.726Z,19.42
2018-10-12T02:33:05.718Z,19.38
2018-10-12T02:35:35.225Z,19.39
2018-10-12T02:38:04.703Z,19.37
2018-10-12T02:40:34.442Z,19.37
2018-10-12T02:43:04.291Z,19.38
2018-10-12T02:45:33.768Z,19.35
2018-10-12T02:48:03.285Z,19.34
2018-10-12T02:50:32.761Z,19.38
2018-10-12T02:53:02.266Z,19.40
2018-10-12T02:55:32.074Z,19.41
2018-10-12T02:58:01.563Z,19.38
2018-10-12T03:00:31.321Z,19.44
2018-10-12T03:03:01.113Z,19.42
2018-10-12T03:05:30.790Z,19.40
2018-10-12T03:08:00.681Z,19.39
2018-10-12T03:10:30.521Z,19.36
2018-10-12T03:13:00.240Z,19.39
2018-10-12T03:15:29.755Z,19.36
2018-10-12T03:17:59.652Z,19.37
2018-10-12T03:20:29.153Z,19.32
2018-10-12T03:22:58.793Z,19.31
2018-10-12T03:25:28.365Z,19.30
2018-10-12T03:28:16.744Z,19.27
2018-10-12T03:30:46.200Z,19.23
2018-10-12T03:33:16.204Z,19.19
2018-10-12T03:35:46.258Z,19.15
2018-10-12T03:38:16.205Z,19.15
2018-10-12T03:40:46.100Z,19.10
2018-10-12T03:43:16.027Z,19.09
2018-10-12T03:45:45.560Z,19.08
2018-10-12T03:48:15.469Z,19.09
2018-10-12T03:50:45.730Z,19.06
2018-10-12T03:53:15.858Z,19.03
2018-10-12T03:55:45.745Z,18.98
2018-10-12T03:58:15.266Z,18.97
2018-10-12T04:00:44.721Z,18.99
2018-10-12T04:03:14.325Z,19.03
2018-10-12T04:05:44.160Z,19.05
2018-10-12T04:08:13.628Z,19.04
2018-10-12T04:10:43.086Z,19.04
2018-10-12T04:13:12.584Z,19.07
2018-10-12T04:15:42.076Z,19.04
2018-10-12T04:18:11.612Z,19.07
2018-10-12T04:20:41.089Z,19.09
2018-10-12T04:23:11.136Z,19.10
2018-10-12T04:25:40.620Z,19.08
2018-10-12T04:28:10.089Z,19.10
2018-10-12T04:30:39.552Z,19.12
2018-10-12T04:33:09.042Z,19.14
2018-10-12T04:35:38.497Z,19.14
2018-10-12T04:38:07.988Z,19.13
2018-10-12T04:41:11.364Z,19.13
2018-10-12T04:43:41.133Z,19.12
2018-10-12T04:46:13.566Z,19.09
2018-10-12T04:48:44.699Z,19.03
2018-10-12T04:51:22.379Z,19.06
2018-10-12T04:53:52.154Z,19.05
2018-10-12T04:56:22.236Z,19.01
2018-10-12T04:58:52.621Z,19.02
2018-10-12T05:01:22.249Z,18.98
2018-10-12T05:03:52.131Z,18.98
2018-10-12T05:06:22.128Z,18.97
2018-10-12T05:08:51.641Z,18.96
2018-10-12T05:11:21.458Z,18.96
2018-10-12T05:13:51.486Z,18.94
2018-10-12T05:16:20.941Z,18.95
2018-10-12T05:18:50.448Z,18.95
2018-10-12T05:21:19.916Z,18.93
2018-10-12T05:23:49.766Z,18.91
2018-10-12T05:26:19.559Z,18.88
2018-10-12T05:28:49.161Z,18.85
2018-10-12T05:31:18.933Z,18.86
2018-10-12T05:33:48.497Z,18.85
2018-10-12T05:36:18.985Z,18.83
2018-10-12T05:38:48.484Z,18.82
2018-10-12T05:41:18.440Z,18.80
2018-10-12T05:43:47.962Z,18.75
2018-10-12T05:46:17.614Z,18.71
2018-10-12T05:49:04.083Z,18.69
2018-10-12T05:51:33.822Z,18.70
2018-10-12T05:54:03.287Z,18.63
2018-10-12T05:56:33.856Z,18.62
2018-10-12T05:59:04.409Z,18.60
2018-10-12T06:01:33.876Z,18.62
2018-10-12T06:04:03.405Z,18.56
2018-10-12T06:06:33.118Z,18.57
2018-10-12T06:09:04.089Z,18.58
2018-10-12T06:11:33.589Z,18.59
2018-10-12T06:14:03.244Z,18.59
2018-10-12T06:16:32.736Z,18.59
2018-10-12T06:19:02.253Z,18.58
2018-10-12T06:21:31.924Z,18.55
2018-10-12T06:24:01.601Z,18.55
2018-10-12T06:26:31.168Z,18.53
2018-10-12T06:29:00.653Z,18.53
2018-10-12T06:31:30.423Z,18.52
2018-10-12T06:33:59.996Z,18.52
2018-10-12T06:36:29.784Z,18.50
2018-10-12T06:38:59.299Z,18.53
2018-10-12T06:41:29.203Z,18.51
2018-10-12T06:43:58.851Z,18.49
2018-10-12T06:46:28.773Z,18.49
2018-10-12T06:48:58.444Z,18.52
2018-10-12T06:51:27.923Z,18.53
2018-10-12T06:53:57.434Z,18.53
2018-10-12T06:56:27.154Z,18.59
2018-10-12T06:58:56.668Z,18.61
2018-10-12T07:01:26.154Z,18.62
2018-10-12T07:03:56.205Z,18.61
2018-10-12T07:06:25.693Z,18.60
2018-10-12T07:08:55.589Z,18.64
2018-10-12T07:11:25.088Z,18.67
2018-10-12T07:13:54.667Z,18.66
2018-10-12T07:16:24.652Z,18.71
2018-10-12T07:18:54.225Z,18.74
2018-10-12T07:21:23.712Z,18.79
2018-10-12T07:23:53.188Z,18.83
2018-10-12T07:26:22.749Z,18.89
2018-10-12T07:28:52.242Z,18.98
2018-10-12T07:31:21.836Z,19.05
2018-10-12T07:33:51.551Z,19.10
2018-10-12T07:36:21.013Z,19.18
2018-10-12T07:38:50.540Z,19.22
2018-10-12T07:41:20.043Z,19.28
2018-10-12T07:43:49.610Z,19.34
2018-10-12T07:46:19.168Z,19.47
2018-10-12T07:48:49.228Z,19.57
2018-10-12T07:51:18.751Z,19.64
2018-10-12T07:53:48.338Z,19.69
2018-10-12T07:56:17.837Z,19.71
2018-10-12T07:58:48.186Z,19.77
2018-10-12T08:01:17.682Z,19.84
2018-10-12T08:03:47.264Z,19.93
2018-10-12T08:06:16.820Z,20.02
2018-10-12T08:08:46.524Z,20.05
2018-10-12T08:11:16.019Z,20.11
2018-10-12T08:13:45.560Z,20.17
2018-10-12T08:16:15.590Z,20.20
2018-10-12T08:18:45.493Z,20.35
2018-10-12T08:21:15.391Z,20.41
2018-10-12T08:23:45.448Z,20.51
2018-10-12T08:26:14.947Z,20.51
2018-10-12T08:28:44.829Z,20.57
2018-10-12T08:31:14.329Z,20.63
2018-10-12T08:33:43.927Z,20.65
2018-10-12T08:36:13.589Z,20.68
2018-10-12T08:38:43.342Z,20.72
2018-10-12T08:41:13.162Z,20.75
2018-10-12T08:43:42.676Z,20.85
2018-10-12T08:46:12.210Z,20.82
2018-10-12T08:48:41.836Z,20.93
2018-10-12T08:51:11.420Z,21.00
2018-10-12T08:53:41.308Z,21.11
2018-10-12T08:56:10.885Z,21.20
2018-10-12T08:58:40.424Z,21.26
2018-10-12T09:01:09.926Z,21.33
2018-10-12T09:03:39.425Z,21.38
2018-10-12T09:06:08.908Z,21.45
2018-10-12T09:08:38.396Z,21.53
2018-10-12T09:11:08.317Z,21.59
2018-10-12T09:13:37.848Z,21.63
2018-10-12T09:16:08.314Z,21.77
2018-10-12T09:18:38.069Z,21.80
2018-10-12T09:21:07.956Z,21.88
2018-10-12T09:23:37.852Z,21.96
2018-10-12T09:26:07.645Z,21.97
2018-10-12T09:28:37.680Z,22.04
2018-10-12T09:31:07.893Z,22.19
2018-10-12T09:33:37.361Z,22.26
2018-10-12T09:36:07.084Z,22.38
2018-10-12T09:38:36.931Z,22.50
2018-10-12T09:41:06.661Z,22.52
2018-10-12T09:43:36.165Z,22.68
2018-10-12T09:46:05.740Z,22.76
2018-10-12T09:48:35.208Z,22.90
2018-10-12T09:51:04.763Z,23.05
2018-10-12T09:53:34.217Z,23.16
2018-10-12T09:56:03.966Z,23.32
2018-10-12T09:58:33.902Z,23.46
2018-10-12T10:01:08.808Z,23.51
2018-10-12T10:03:43.682Z,23.54
2018-10-12T10:06:13.284Z,23.51
2018-10-12T10:08:42.919Z,23.50
2018-10-12T10:11:12.499Z,23.54
2018-10-12T10:13:42.004Z,23.53
2018-10-12T10:16:11.689Z,23.48
2018-10-12T10:18:41.177Z,23.56
2018-10-12T10:21:10.636Z,23.54
2018-10-12T10:23:40.120Z,23.64
2018-10-12T10:26:09.652Z,23.74
2018-10-12T10:28:39.128Z,23.70
2018-10-12T10:31:08.958Z,23.76
2018-10-12T10:33:38.447Z,23.88
2018-10-12T10:36:07.956Z,23.96
2018-10-12T10:38:37.788Z,23.95
2018-10-12T10:41:08.049Z,23.84
2018-10-12T10:43:37.512Z,23.92
2018-10-12T10:46:07.819Z,23.91
2018-10-12T10:48:37.488Z,23.88
2018-10-12T10:51:08.178Z,23.83
2018-10-12T10:53:37.682Z,23.85
2018-10-12T10:56:07.887Z,23.89
2018-10-12T10:58:37.573Z,23.89
2018-10-12T11:01:08.058Z,23.91
2018-10-12T11:03:37.525Z,24.00
2018-10-12T11:06:07.424Z,24.05
2018-10-12T11:08:37.120Z,24.11
2018-10-12T11:11:07.108Z,24.20
2018-10-12T11:13:36.628Z,24.14
2018-10-12T11:16:06.415Z,24.29
2018-10-12T11:18:35.939Z,24.29
2018-10-12T11:21:05.710Z,24.38
2018-10-12T11:23:35.361Z,24.39
2018-10-12T11:26:05.244Z,24.51
2018-10-12T11:28:34.713Z,24.52
2018-10-12T11:31:04.173Z,24.57
2018-10-12T11:33:33.715Z,24.62
2018-10-12T11:36:03.165Z,24.64
2018-10-12T11:38:32.748Z,24.64
2018-10-12T11:41:02.312Z,24.68
2018-10-12T11:43:34.320Z,24.72
2018-10-12T11:46:04.516Z,24.79
2018-10-12T11:48:34.155Z,24.85
2018-10-12T11:51:03.633Z,24.93
2018-10-12T11:53:33.453Z,25.04
2018-10-12T11:56:03.384Z,25.15
2018-10-12T11:58:32.865Z,25.22
2018-10-12T12:01:02.706Z,25.31
2018-10-12T12:03:32.344Z,25.35
2018-10-12T12:06:01.888Z,25.34
2018-10-12T12:08:31.383Z,25.37
2018-10-12T12:11:00.870Z,25.38
2018-10-12T12:13:30.413Z,25.50
2018-10-12T12:16:00.070Z,25.53
2018-10-12T12:18:29.549Z,25.54
2018-10-12T12:20:59.081Z,25.59
2018-10-12T12:23:29.255Z,25.63
2018-10-12T12:25:58.776Z,25.66
2018-10-12T12:28:28.296Z,25.61
2018-10-12T12:30:57.804Z,25.61
2018-10-12T12:33:27.288Z,25.60
2018-10-12T12:35:57.186Z,25.58
2018-10-12T12:38:26.516Z,25.60
2018-10-12T12:40:55.993Z,25.62
2018-10-12T12:43:25.485Z,25.46
2018-10-12T12:45:54.928Z,25.53
2018-10-12T12:48:24.599Z,25.51
2018-10-12T12:50:54.225Z,25.49
2018-10-12T12:53:23.741Z,25.52
2018-10-12T12:55:53.209Z,25.63
2018-10-12T12:58:22.677Z,25.67
2018-10-12T13:00:52.669Z,25.79
2018-10-12T13:03:22.191Z,25.79
2018-10-12T13:05:51.706Z,25.84
2018-10-12T13:08:21.377Z,25.92
2018-10-12T13:10:50.865Z,25.90
2018-10-12T13:13:20.845Z,25.93
2018-10-12T13:15:50.360Z,25.91
2018-10-12T13:18:19.861Z,25.93
2018-10-12T13:20:49.290Z,25.89
2018-10-12T13:23:18.780Z,26.01
2018-10-12T13:25:48.376Z,26.01
2018-10-12T13:28:17.984Z,26.02
2018-10-12T13:30:47.768Z,26.03
2018-10-12T13:33:17.244Z,26.10
2018-10-12T13:35:46.753Z,26.15
2018-10-12T13:38:16.428Z,26.19
2018-10-12T13:40:45.904Z,26.17
2018-10-12T13:43:15.792Z,26.23
2018-10-12T13:45:45.353Z,26.29
2018-10-12T13:48:15.056Z,26.33
2018-10-12T13:50:44.592Z,26.31
2018-10-12T13:53:14.041Z,26.30
2018-10-12T13:55:43.521Z,26.28
2018-10-12T13:58:13.036Z,26.35
2018-10-12T14:00:42.572Z,26.39
2018-10-12T14:03:12.082Z,26.40
2018-10-12T14:05:41.607Z,26.41
2018-10-12T14:08:11.307Z,26.38
2018-10-12T14:10:40.748Z,26.40
2018-10-12T14:13:10.264Z,26.39
2018-10-12T14:15:39.781Z,26.46
2018-10-12T14:18:10.065Z,26.48
2018-10-12T14:20:39.986Z,26.52
2018-10-12T14:23:09.811Z,26.47
2018-10-12T14:25:39.285Z,26.47
2018-10-12T14:28:09.069Z,26.41
2018-10-12T14:30:38.719Z,26.38
2018-10-12T14:33:08.804Z,26.34
2018-10-12T14:35:38.346Z,26.33
2018-10-12T14:38:08.050Z,26.34
2018-10-12T14:40:37.574Z,26.34
2018-10-12T14:43:07.448Z,26.35
2018-10-12T14:45:36.904Z,26.33
2018-10-12T14:48:06.512Z,26.38
2018-10-12T14:50:36.363Z,26.37
2018-10-12T14:53:06.073Z,26.33
2018-10-12T14:55:36.037Z,26.29
2018-10-12T14:58:05.681Z,26.25
2018-10-12T15:00:35.517Z,26.27
2018-10-12T15:03:05.053Z,26.25
2018-10-12T15:05:34.578Z,26.26
2018-10-12T15:08:04.185Z,26.24
2018-10-12T15:10:33.980Z,26.03
2018-10-12T15:13:03.896Z,26.08
2018-10-12T15:15:33.381Z,26.10
2018-10-12T15:18:02.874Z,26.09
2018-10-12T15:20:32.711Z,26.02
2018-10-12T15:23:02.368Z,26.03
2018-10-12T15:25:31.987Z,26.01
2018-10-12T15:28:01.604Z,25.99
2018-10-12T15:30:31.158Z,25.95
2018-10-12T15:33:00.645Z,26.01
2018-10-12T15:35:30.080Z,25.97
2018-10-12T15:37:59.564Z,25.97
2018-10-12T15:40:29.357Z,25.96
2018-10-12T15:42:59.304Z,25.94
2018-10-12T15:45:28.901Z,25.91
2018-10-12T15:47:58.436Z,25.87
2018-10-12T15:50:27.932Z,25.83
2018-10-12T15:52:57.390Z,25.74
2018-10-12T15:55:26.861Z,25.67
2018-10-12T15:57:56.356Z,25.65
2018-10-12T16:00:25.898Z,25.57
2018-10-12T16:02:55.350Z,25.56
2018-10-12T16:05:25.208Z,25.57
2018-10-12T16:07:54.700Z,25.57
2018-10-12T16:10:24.293Z,25.54
2018-10-12T16:12:54.056Z,25.54
2018-10-12T16:15:23.774Z,25.52
2018-10-12T16:17:53.420Z,25.48
2018-10-12T16:20:22.893Z,25.43
2018-10-12T16:22:52.373Z,25.37
2018-10-12T16:26:06.399Z,25.31
2018-10-12T16:28:36.178Z,25.17
2018-10-12T16:31:05.780Z,25.16
2018-10-12T16:33:35.286Z,25.15
2018-10-12T16:36:05.744Z,25.12
2018-10-12T16:38:35.394Z,25.10
2018-10-12T16:41:05.280Z,25.06
2018-10-12T16:43:34.837Z,24.99
2018-10-12T16:46:04.994Z,24.94
2018-10-12T16:48:34.866Z,24.87
2018-10-12T16:51:04.881Z,24.84
2018-10-12T16:53:34.603Z,24.80
2018-10-12T16:56:04.059Z,24.80
2018-10-12T16:58:33.515Z,24.77
2018-10-12T17:01:03.015Z,24.71
2018-10-12T17:03:32.560Z,24.70
2018-10-12T17:06:02.044Z,24.67
2018-10-12T17:08:32.132Z,24.62
2018-10-12T17:11:01.948Z,24.59
2018-10-12T17:13:31.501Z,24.55
2018-10-12T17:16:00.950Z,24.52
2018-10-12T17:18:30.547Z,24.45
2018-10-12T17:21:00.233Z,24.40
2018-10-12T17:23:29.808Z,24.25
2018-10-12T17:25:59.404Z,24.15
2018-10-12T17:28:28.950Z,24.12
2018-10-12T17:30:58.469Z,24.04
2018-10-12T17:33:27.966Z,23.94
2018-10-12T17:35:57.460Z,23.89
2018-10-12T17:38:26.987Z,23.79
2018-10-12T17:40:56.468Z,23.74
2018-10-12T17:43:26.303Z,23.72
2018-10-12T17:45:55.745Z,23.69
2018-10-12T17:48:25.221Z,23.63
2018-10-12T17:50:54.681Z,23.57
2018-10-12T17:53:24.446Z,23.53
2018-10-12T17:55:53.993Z,23.52
2018-10-12T17:58:23.545Z,23.50
2018-10-12T18:00:53.232Z,23.49
2018-10-12T18:03:22.752Z,23.45
2018-10-12T18:05:52.600Z,23.48
2018-10-12T18:08:22.202Z,23.45
2018-10-12T18:10:51.717Z,23.47
2018-10-12T18:13:21.237Z,23.41
2018-10-12T18:15:50.866Z,23.44
2018-10-12T18:18:20.388Z,23.41
2018-10-12T18:20:50.002Z,23.38
2018-10-12T18:23:19.494Z,23.34
2018-10-12T18:25:49.052Z,23.34
2018-10-12T18:28:18.693Z,23.32
2018-10-12T18:30:48.237Z,23.30
2018-10-12T18:33:17.753Z,23.33
2018-10-12T18:35:47.290Z,23.31
2018-10-12T18:38:16.776Z,23.28
2018-10-12T18:40:46.260Z,23.27
2018-10-12T18:43:16.217Z,23.23
2018-10-12T18:45:45.914Z,23.21
2018-10-12T18:48:15.597Z,23.19
2018-10-12T18:50:45.101Z,23.21
2018-10-12T18:53:14.656Z,23.16
2018-10-12T18:55:44.112Z,23.20
2018-10-12T18:58:13.730Z,23.19
2018-10-12T19:00:43.334Z,23.18
2018-10-12T19:03:12.836Z,23.15
2018-10-12T19:05:42.497Z,23.13
2018-10-12T19:08:12.113Z,23.09
2018-10-12T19:10:41.628Z,23.06
2018-10-12T19:13:11.148Z,23.01
2018-10-12T19:15:40.760Z,23.04
2018-10-12T19:18:10.422Z,23.09
2018-10-12T19:20:39.970Z,23.08
2018-10-12T19:23:09.548Z,23.06
2018-10-12T19:25:39.078Z,23.02
2018-10-12T19:28:08.674Z,23.00
2018-10-12T19:30:38.549Z,22.99
2018-10-12T19:33:08.452Z,22.97
2018-10-12T19:35:39.847Z,22.92
2018-10-12T19:38:09.391Z,22.87
2018-10-12T19:40:39.085Z,22.85
2018-10-12T19:43:08.623Z,22.85
2018-10-12T19:45:38.143Z,22.83
2018-10-12T19:48:07.934Z,22.81
2018-10-12T19:50:37.420Z,22.83
2018-10-12T19:53:06.995Z,22.79
2018-10-12T19:55:36.684Z,22.82
2018-10-12T19:58:06.276Z,22.83
2018-10-12T20:00:35.806Z,22.79
2018-10-12T20:03:05.367Z,22.80
2018-10-12T20:05:35.549Z,22.78
2018-10-12T20:08:05.432Z,22.78
2018-10-12T20:10:35.134Z,22.79
2018-10-12T20:13:04.798Z,22.80
2018-10-12T20:15:34.360Z,22.77
2018-10-12T20:18:04.123Z,22.76
2018-10-12T20:20:33.732Z,22.69
2018-10-12T20:23:03.342Z,22.75
2018-10-12T20:25:33.131Z,22.74
2018-10-12T20:28:02.693Z,22.70
2018-10-12T20:30:32.299Z,22.74
2018-10-12T20:33:01.977Z,22.71
2018-10-12T20:36:02.885Z,22.69
2018-10-12T20:38:32.351Z,22.61
2018-10-12T20:41:01.912Z,22.62
2018-10-12T20:43:31.792Z,22.61
2018-10-12T20:46:01.353Z,22.62
2018-10-12T20:48:31.025Z,22.62
2018-10-12T20:51:00.536Z,22.61
2018-10-12T20:53:30.661Z,22.61
2018-10-12T20:56:00.327Z,22.58
2018-10-12T20:58:29.818Z,22.57
2018-10-12T21:00:59.462Z,22.51
2018-10-12T21:03:28.956Z,22.54
2018-10-12T21:05:58.930Z,22.52
2018-10-12T21:08:28.571Z,22.58
2018-10-12T21:10:58.254Z,22.59
2018-10-12T21:13:27.902Z,22.56
2018-10-12T21:15:57.353Z,22.44
2018-10-12T21:18:26.887Z,22.52
2018-10-12T21:20:56.439Z,22.51
2018-10-12T21:23:26.088Z,22.51
2018-10-12T21:25:55.685Z,22.50
2018-10-12T21:28:25.330Z,22.50
2018-10-12T21:30:54.904Z,22.47
2018-10-12T21:33:24.392Z,22.41
2018-10-12T21:35:53.949Z,22.43
2018-10-12T21:38:23.604Z,22.43
2018-10-12T21:40:53.176Z,22.43
2018-10-12T21:43:22.731Z,22.41
2018-10-12T21:45:52.276Z,22.41
2018-10-12T21:48:21.841Z,22.34
2018-10-12T21:50:51.355Z,22.35
2018-10-12T21:53:21.141Z,22.35
2018-10-12T21:55:50.654Z,22.35
2018-10-12T21:58:20.154Z,22.33
2018-10-12T22:00:54.980Z,22.28
2018-10-12T22:03:24.480Z,22.32
2018-10-12T22:05:54.013Z,22.31
2018-10-12T22:08:28.884Z,22.30
2018-10-12T22:10:58.395Z,22.32
2018-10-12T22:13:28.233Z,22.32
2018-10-12T22:15:57.787Z,22.30
2018-10-12T22:18:27.641Z,22.25
2018-10-12T22:20:57.338Z,22.26
2018-10-12T22:23:27.189Z,22.27
2018-10-12T22:25:56.757Z,22.29
2018-10-12T22:28:26.605Z,22.27
2018-10-12T22:30:56.139Z,22.26
2018-10-12T22:33:25.630Z,22.26
2018-10-12T22:35:55.497Z,22.25
2018-10-12T22:38:25.064Z,22.25
2018-10-12T22:40:54.532Z,22.21
2018-10-12T22:43:24.028Z,22.20
2018-10-12T22:45:53.689Z,22.16
2018-10-12T22:48:23.609Z,22.21
2018-10-12T22:50:53.072Z,22.18
2018-10-12T22:53:22.576Z,22.20
2018-10-12T22:55:52.064Z,22.18
2018-10-12T22:58:21.618Z,22.15
2018-10-12T23:00:51.775Z,22.14
2018-10-12T23:03:21.314Z,22.11
2018-10-12T23:05:50.932Z,22.10
2018-10-12T23:08:20.500Z,22.10
2018-10-12T23:10:50.490Z,22.07
2018-10-12T23:13:20.043Z,22.03
2018-10-12T23:15:49.578Z,22.04
2018-10-12T23:18:19.101Z,22.03
2018-10-12T23:20:48.577Z,22.02
2018-10-12T23:23:18.081Z,22.01
2018-10-12T23:25:47.606Z,22.03
2018-10-12T23:28:17.125Z,21.99
2018-10-12T23:30:46.637Z,21.96
2018-10-12T23:33:33.383Z,21.96
2018-10-12T23:36:03.248Z,21.93
2018-10-12T23:38:32.716Z,21.94
2018-10-12T23:41:02.220Z,21.93
2018-10-12T23:43:31.741Z,21.92
2018-10-12T23:46:01.252Z,21.88
2018-10-12T23:48:30.786Z,21.90
2018-10-12T23:51:00.633Z,21.89
2018-10-12T23:53:30.167Z,21.88
2018-10-12T23:55:59.741Z,21.88
2018-10-12T23:58:29.364Z,21.85
